Time;durP1;ratioP1;P1;durP2;ratioP2;P2;SDS_P1;SDS_P2;PMS_P1;PMS_P2;Temp;Humidity;BMP_temperature;BMP_pressure;BME280_temperature;BME280_humidity;BME280_pressure;Samples;Min_cycle;Max_cycle;Signal;HPM_P1;HPM_P2
2023/08/19 00:01:05;;;;;;;0.00;0.00;;;;;;;;;;5113626;28;20020;-80
2023/08/19 00:03:33;;;;;;;0.00;0.00;;;;;;;;;;5113379;28;20019;-80
2023/08/19 00:06:04;;;;;;;0.00;0.00;;;;;;;;;;5114571;28;20031;-80
2023/08/19 00:08:29;;;;;;;0.00;0.00;;;;;;;;;;5114781;28;20440;-81
2023/08/19 00:10:55;;;;;;;0.00;0.00;;;;;;;;;;5113371;28;20030;-81
2023/08/19 00:13:20;;;;;;;0.00;0.00;;;;;;;;;;5114257;28;20038;-81
2023/08/19 00:15:46;;;;;;;0.00;0.00;;;;;;;;;;5096319;28;20126;-81
2023/08/19 00:18:11;;;;;;;0.00;0.00;;;;;;;;;;5114479;28;20030;-81
2023/08/19 00:20:37;;;;;;;0.00;0.00;;;;;;;;;;5079626;28;20024;-80
2023/08/19 00:23:03;;;;;;;0.00;0.00;;;;;;;;;;5096366;28;20376;-80
2023/08/19 00:25:28;;;;;;;0.00;0.00;;;;;;;;;;5113319;28;20027;-80
2023/08/19 00:27:54;;;;;;;0.00;0.00;;;;;;;;;;5095797;28;20043;-78
2023/08/19 00:30:19;;;;;;;0.00;0.00;;;;;;;;;;5113104;28;20369;-78
2023/08/19 00:32:46;;;;;;;0.00;0.00;;;;;;;;;;5114789;28;20063;-78
2023/08/19 00:35:12;;;;;;;0.00;0.00;;;;;;;;;;5096031;28;20035;-79
2023/08/19 00:37:37;;;;;;;0.03;0.00;;;;;;;;;;5114270;28;20410;-78
2023/08/19 00:40:06;;;;;;;0.00;0.00;;;;;;;;;;5114387;28;20027;-79
2023/08/19 00:42:31;;;;;;;0.00;0.00;;;;;;;;;;5096404;28;20023;-81
2023/08/19 00:44:57;;;;;;;0.00;0.00;;;;;;;;;;5113100;28;20058;-80
2023/08/19 00:47:23;;;;;;;0.08;0.00;;;;;;;;;;5113097;28;20084;-79
2023/08/19 00:49:49;;;;;;;0.00;0.00;;;;;;;;;;5096264;28;20027;-80
2023/08/19 00:52:14;;;;;;;0.00;0.00;;;;;;;;;;5116927;28;20030;-80
2023/08/19 00:54:40;;;;;;;0.00;0.00;;;;;;;;;;5099814;28;20023;-80
2023/08/19 00:57:05;;;;;;;0.00;0.00;;;;;;;;;;5116367;28;20027;-80
2023/08/19 00:59:31;;;;;;;0.00;0.00;;;;;;;;;;5117824;28;20467;-80
2023/08/19 01:01:56;;;;;;;0.00;0.00;;;;;;;;;;5116932;28;20062;-80
2023/08/19 01:04:22;;;;;;;0.00;0.00;;;;;;;;;;5117790;28;20023;-79
2023/08/19 01:06:59;;;;;;;0.00;0.00;;;;;;;;;;5116363;28;20024;-80
2023/08/19 01:09:30;;;;;;;0.00;0.00;;;;;;;;;;5116600;28;20032;-81
2023/08/19 01:12:02;;;;;;;0.00;0.00;;;;;;;;;;5100199;28;20027;-80
2023/08/19 01:14:50;;;;;;;0.00;0.00;;;;;;;;;;5099529;28;20067;-80
2023/08/19 01:17:17;;;;;;;0.00;0.00;;;;;;;;;;5116515;28;20093;-80
2023/08/19 01:19:42;;;;;;;0.00;0.00;;;;;;;;;;5116718;28;20058;-80
2023/08/19 01:22:09;;;;;;;0.00;0.00;;;;;;;;;;5116435;28;20050;-79
2023/08/19 01:24:37;;;;;;;0.00;0.00;;;;;;;;;;5116232;28;20468;-80
2023/08/19 01:27:04;;;;;;;0.00;0.00;;;;;;;;;;5098752;28;20032;-79
2023/08/19 01:29:30;;;;;;;0.00;0.00;;;;;;;;;;5079378;28;20123;-80
2023/08/19 01:31:55;;;;;;;0.00;0.00;;;;;;;;;;5096874;28;20107;-80
2023/08/19 01:34:22;;;;;;;0.00;0.00;;;;;;;;;;5062303;28;20024;-80
2023/08/19 01:36:49;;;;;;;0.00;0.00;;;;;;;;;;5096670;28;20555;-80
2023/08/19 01:39:14;;;;;;;0.00;0.00;;;;;;;;;;5062032;28;20055;-79
2023/08/19 01:41:40;;;;;;;0.00;0.00;;;;;;;;;;5078293;28;20445;-79
2023/08/19 01:44:05;;;;;;;0.00;0.00;;;;;;;;;;5078581;28;20111;-80
2023/08/19 01:46:30;;;;;;;0.00;0.00;;;;;;;;;;5095278;28;20030;-80
2023/08/19 01:48:56;;;;;;;0.00;0.00;;;;;;;;;;5095391;28;20020;-79
2023/08/19 01:51:21;;;;;;;0.00;0.00;;;;;;;;;;5096880;28;20027;-81
2023/08/19 01:53:47;;;;;;;0.00;0.00;;;;;;;;;;5078351;28;20101;-80
2023/08/19 01:56:12;;;;;;;0.00;0.00;;;;;;;;;;5078250;28;20525;-80
2023/08/19 01:58:38;;;;;;;0.00;0.00;;;;;;;;;;5078452;28;20024;-79
2023/08/19 02:01:03;;;;;;;0.00;0.00;;;;;;;;;;5096557;28;20031;-80
2023/08/19 02:03:29;;;;;;;0.00;0.00;;;;;;;;;;5094353;28;20024;-80
2023/08/19 02:05:54;;;;;;;0.08;0.00;;;;;;;;;;5095301;28;20392;-79
2023/08/19 02:08:20;;;;;;;0.00;0.00;;;;;;;;;;5096084;28;20574;-80
2023/08/19 02:10:45;;;;;;;0.00;0.00;;;;;;;;;;5096272;28;20024;-80
2023/08/19 02:13:11;;;;;;;0.00;0.00;;;;;;;;;;5096352;28;20062;-80
2023/08/19 02:15:36;;;;;;;0.00;0.00;;;;;;;;;;5095939;28;20036;-80
2023/08/19 02:18:02;;;;;;;0.05;0.00;;;;;;;;;;5094814;28;20028;-79
2023/08/19 02:20:27;;;;;;;0.00;0.00;;;;;;;;;;5094701;28;20024;-80
2023/08/19 02:22:54;;;;;;;0.00;0.00;;;;;;;;;;5094403;28;20025;-79
2023/08/19 02:25:19;;;;;;;0.00;0.00;;;;;;;;;;5077899;28;20036;-80
2023/08/19 02:27:45;;;;;;;0.00;0.00;;;;;;;;;;5100160;28;20044;-80
2023/08/19 02:30:11;;;;;;;0.00;0.00;;;;;;;;;;5115156;28;20024;-80
2023/08/19 02:32:38;;;;;;;0.00;0.00;;;;;;;;;;5114998;28;20097;-80
2023/08/19 02:35:04;;;;;;;0.00;0.00;;;;;;;;;;5115028;28;20019;-81
2023/08/19 02:37:29;;;;;;;0.00;0.00;;;;;;;;;;5115997;28;20093;-81
2023/08/19 02:39:55;;;;;;;0.22;0.00;;;;;;;;;;5114762;28;20337;-80
2023/08/19 02:42:20;;;;;;;0.00;0.00;;;;;;;;;;5115868;28;20027;-80
2023/08/19 02:44:46;;;;;;;0.00;0.00;;;;;;;;;;5116052;28;20030;-79
2023/08/19 02:47:12;;;;;;;0.00;0.00;;;;;;;;;;5114694;28;20031;-79
2023/08/19 02:49:37;;;;;;;0.00;0.00;;;;;;;;;;5114515;28;20027;-79
2023/08/19 02:52:04;;;;;;;0.00;0.00;;;;;;;;;;5097444;28;20356;-80
2023/08/19 02:54:29;;;;;;;0.00;0.00;;;;;;;;;;5114402;28;20110;-80
2023/08/19 02:56:55;;;;;;;0.00;0.00;;;;;;;;;;5115552;28;20499;-80
2023/08/19 02:59:20;;;;;;;0.00;0.00;;;;;;;;;;5115576;28;20027;-80
2023/08/19 03:01:46;;;;;;;0.00;0.00;;;;;;;;;;5115669;28;20024;-80
2023/08/19 03:04:11;;;;;;;0.00;0.00;;;;;;;;;;5097245;28;20080;-79
2023/08/19 03:06:36;;;;;;;0.00;0.00;;;;;;;;;;5113993;28;20055;-79
2023/08/19 03:09:02;;;;;;;0.00;0.00;;;;;;;;;;5114242;28;20024;-79
2023/08/19 03:11:28;;;;;;;0.00;0.00;;;;;;;;;;5115878;28;20016;-79
2023/08/19 03:13:54;;;;;;;0.00;0.00;;;;;;;;;;5097214;28;20027;-80
2023/08/19 03:16:19;;;;;;;0.10;0.00;;;;;;;;;;5114190;28;20041;-79
2023/08/19 03:18:44;;;;;;;0.00;0.00;;;;;;;;;;5115194;28;20019;-80
2023/08/19 03:21:10;;;;;;;0.17;0.00;;;;;;;;;;5096710;28;20122;-79
2023/08/19 03:23:35;;;;;;;0.00;0.00;;;;;;;;;;5113893;28;20061;-79
2023/08/19 03:26:02;;;;;;;0.00;0.00;;;;;;;;;;5113944;28;20031;-80
2023/08/19 03:28:28;;;;;;;0.00;0.00;;;;;;;;;;5114936;28;20051;-79
2023/08/19 03:30:53;;;;;;;0.00;0.00;;;;;;;;;;5113871;28;20106;-80
2023/08/19 03:33:20;;;;;;;0.00;0.00;;;;;;;;;;5115041;28;20497;-79
2023/08/19 03:35:45;;;;;;;0.00;0.00;;;;;;;;;;5113545;27;20031;-81
2023/08/19 03:38:12;;;;;;;0.00;0.00;;;;;;;;;;5113670;28;20361;-80
2023/08/19 03:40:38;;;;;;;0.00;0.00;;;;;;;;;;5113962;28;20035;-80
2023/08/19 03:43:03;;;;;;;0.00;0.00;;;;;;;;;;5113851;28;20024;-78
2023/08/19 03:45:32;;;;;;;0.00;0.00;;;;;;;;;;5113821;28;20132;-78
2023/08/19 03:47:58;;;;;;;0.00;0.00;;;;;;;;;;5097157;28;20028;-80
2023/08/19 03:50:23;;;;;;;0.00;0.00;;;;;;;;;;5113561;28;20030;-80
2023/08/19 03:52:49;;;;;;;0.00;0.00;;;;;;;;;;5113635;28;20023;-80
2023/08/19 03:55:14;;;;;;;0.00;0.00;;;;;;;;;;5114542;28;20059;-81
2023/08/19 03:57:40;;;;;;;0.00;0.00;;;;;;;;;;5114932;28;20031;-80
2023/08/19 04:00:06;;;;;;;0.00;0.00;;;;;;;;;;5114616;28;20028;-80
2023/08/19 04:02:31;;;;;;;0.00;0.00;;;;;;;;;;5114690;28;20036;-80
2023/08/19 04:05:04;;;;;;;0.00;0.00;;;;;;;;;;5114304;28;20049;-80
2023/08/19 04:07:29;;;;;;;0.00;0.00;;;;;;;;;;5113443;28;20063;-80
2023/08/19 04:09:55;;;;;;;0.00;0.00;;;;;;;;;;5114580;28;20059;-80
2023/08/19 04:12:24;;;;;;;0.00;0.00;;;;;;;;;;5114772;28;20456;-80
2023/08/19 04:14:49;;;;;;;0.00;0.00;;;;;;;;;;5114682;28;20023;-80
2023/08/19 04:17:15;;;;;;;0.05;0.00;;;;;;;;;;5114684;28;20061;-80
2023/08/19 04:19:41;;;;;;;0.00;0.00;;;;;;;;;;5079215;28;20525;-80
2023/08/19 04:22:06;;;;;;;0.00;0.00;;;;;;;;;;5114681;28;20061;-80
2023/08/19 04:24:32;;;;;;;0.05;0.00;;;;;;;;;;5114351;28;20076;-80
2023/08/19 04:26:59;;;;;;;0.00;0.00;;;;;;;;;;5098606;28;20039;-80
2023/08/19 04:29:25;;;;;;;0.00;0.00;;;;;;;;;;5083717;28;20035;-80
2023/08/19 04:31:50;;;;;;;0.00;0.00;;;;;;;;;;5117230;28;20381;-79
2023/08/19 04:34:16;;;;;;;0.00;0.00;;;;;;;;;;5120053;28;20023;-81
2023/08/19 04:36:41;;;;;;;0.00;0.00;;;;;;;;;;5100124;28;20032;-80
2023/08/19 04:39:07;;;;;;;0.00;0.00;;;;;;;;;;5117410;28;20035;-80
2023/08/19 04:41:33;;;;;;;0.00;0.00;;;;;;;;;;5120420;28;20498;-79
2023/08/19 04:43:59;;;;;;;0.00;0.00;;;;;;;;;;5127654;28;20032;-80
2023/08/19 04:46:24;;;;;;;0.00;0.00;;;;;;;;;;5127804;28;20027;-80
2023/08/19 04:48:50;;;;;;;0.00;0.00;;;;;;;;;;5106208;28;20024;-80
2023/08/19 04:51:15;;;;;;;0.00;0.00;;;;;;;;;;5124165;28;20027;-81
2023/08/19 04:53:40;;;;;;;0.00;0.00;;;;;;;;;;5101473;28;20027;-80
2023/08/19 04:56:06;;;;;;;0.00;0.00;;;;;;;;;;5099801;28;20430;-80
2023/08/19 04:58:32;;;;;;;0.00;0.00;;;;;;;;;;5118224;28;20034;-79
2023/08/19 05:00:57;;;;;;;0.10;0.00;;;;;;;;;;5118104;28;20024;-79
2023/08/19 05:03:22;;;;;;;0.00;0.00;;;;;;;;;;5099225;28;20019;-78
2023/08/19 05:05:48;;;;;;;0.00;0.00;;;;;;;;;;5117787;28;20024;-79
2023/08/19 05:08:14;;;;;;;0.00;0.00;;;;;;;;;;5117959;28;20027;-78
2023/08/19 05:10:39;;;;;;;0.00;0.00;;;;;;;;;;5116494;28;20030;-78
2023/08/19 05:13:05;;;;;;;0.00;0.00;;;;;;;;;;5117597;28;20023;-79
2023/08/19 05:15:30;;;;;;;0.00;0.00;;;;;;;;;;5116388;28;20019;-78
2023/08/19 05:17:56;;;;;;;0.00;0.00;;;;;;;;;;5116263;28;20038;-78
2023/08/19 05:20:21;;;;;;;0.00;0.00;;;;;;;;;;5116278;28;20057;-79
2023/08/19 05:22:47;;;;;;;0.28;0.00;;;;;;;;;;5099585;28;20020;-80
2023/08/19 05:25:12;;;;;;;0.00;0.00;;;;;;;;;;5116581;28;20020;-80
2023/08/19 05:27:37;;;;;;;0.00;0.00;;;;;;;;;;5082306;28;20055;-79
2023/08/19 05:30:07;;;;;;;0.00;0.00;;;;;;;;;;5116262;28;20455;-80
2023/08/19 05:32:33;;;;;;;0.00;0.00;;;;;;;;;;5116101;28;20055;-80
2023/08/19 05:34:59;;;;;;;0.00;0.00;;;;;;;;;;5116122;28;20028;-80
2023/08/19 05:37:24;;;;;;;0.00;0.00;;;;;;;;;;5116297;28;20368;-80
2023/08/19 05:39:49;;;;;;;0.00;0.00;;;;;;;;;;5115628;28;20065;-80
2023/08/19 05:42:15;;;;;;;0.00;0.00;;;;;;;;;;5117087;28;20507;-80
2023/08/19 05:44:41;;;;;;;0.00;0.00;;;;;;;;;;5115930;28;20106;-80
2023/08/19 05:47:06;;;;;;;0.00;0.00;;;;;;;;;;5115373;28;20045;-80
2023/08/19 05:49:32;;;;;;;0.00;0.00;;;;;;;;;;5115707;28;20030;-80
2023/08/19 05:51:57;;;;;;;0.00;0.00;;;;;;;;;;5115709;28;20027;-81
2023/08/19 05:54:23;;;;;;;0.00;0.00;;;;;;;;;;5115846;28;20028;-80
2023/08/19 05:56:48;;;;;;;0.00;0.00;;;;;;;;;;5116799;28;20036;-81
2023/08/19 05:59:14;;;;;;;0.00;0.00;;;;;;;;;;5115806;28;20035;-81
2023/08/19 06:01:42;;;;;;;0.00;0.00;;;;;;;;;;5115239;28;20111;-79
2023/08/19 06:04:08;;;;;;;0.00;0.00;;;;;;;;;;5115415;28;20345;-80
2023/08/19 06:06:33;;;;;;;0.00;0.00;;;;;;;;;;5115703;28;20123;-80
2023/08/19 06:08:59;;;;;;;0.00;0.00;;;;;;;;;;5115338;28;20031;-80
2023/08/19 06:11:24;;;;;;;0.00;0.00;;;;;;;;;;5115374;28;20406;-80
2023/08/19 06:13:50;;;;;;;0.00;0.00;;;;;;;;;;5115257;28;20030;-79
2023/08/19 06:16:15;;;;;;;0.00;0.00;;;;;;;;;;5115224;28;20065;-80
2023/08/19 06:18:41;;;;;;;0.00;0.00;;;;;;;;;;5115157;28;20038;-80
2023/08/19 06:21:06;;;;;;;0.00;0.00;;;;;;;;;;5098125;28;20453;-81
2023/08/19 06:23:32;;;;;;;0.00;0.00;;;;;;;;;;5115040;28;20035;-81
2023/08/19 06:25:58;;;;;;;0.00;0.00;;;;;;;;;;5098307;28;20032;-80
2023/08/19 06:28:23;;;;;;;0.10;0.00;;;;;;;;;;5098123;28;20043;-80
2023/08/19 06:30:49;;;;;;;0.00;0.00;;;;;;;;;;5097998;28;20035;-80
2023/08/19 06:33:14;;;;;;;0.00;0.00;;;;;;;;;;5115419;28;20426;-79
2023/08/19 06:35:40;;;;;;;0.00;0.00;;;;;;;;;;5098099;28;20031;-79
2023/08/19 06:38:14;;;;;;;0.00;0.00;;;;;;;;;;5115090;28;20368;-81
2023/08/19 06:40:40;;;;;;;0.00;0.00;;;;;;;;;;5098099;28;20030;-80
2023/08/19 06:43:06;;;;;;;0.00;0.00;;;;;;;;;;5097849;28;20024;-80
2023/08/19 06:45:32;;;;;;;0.00;0.00;;;;;;;;;;5097396;28;20036;-80
2023/08/19 06:47:58;;;;;;;0.00;0.00;;;;;;;;;;5114816;28;20024;-79
2023/08/19 06:50:24;;;;;;;0.00;0.00;;;;;;;;;;5114270;28;20047;-80
2023/08/19 06:52:49;;;;;;;0.00;0.00;;;;;;;;;;5115663;28;20509;-79
2023/08/19 06:55:18;;;;;;;0.00;0.00;;;;;;;;;;5097380;28;20031;-80
2023/08/19 06:57:47;;;;;;;0.00;0.00;;;;;;;;;;5116039;28;20038;-80
2023/08/19 07:00:13;;;;;;;0.00;0.00;;;;;;;;;;5097663;28;20023;-81
2023/08/19 07:02:39;;;;;;;0.08;0.08;;;;;;;;;;5080666;28;20041;-81
2023/08/19 07:05:12;;;;;;;0.10;0.10;;;;;;;;;;5097345;28;20102;-81
2023/08/19 07:07:39;;;;;;;0.05;0.05;;;;;;;;;;5098267;28;20031;-80
2023/08/19 07:10:05;;;;;;;0.10;0.10;;;;;;;;;;5097417;28;20027;-81
2023/08/19 07:12:32;;;;;;;0.08;0.08;;;;;;;;;;5097439;28;20059;-81
2023/08/19 07:14:57;;;;;;;0.10;0.10;;;;;;;;;;5114331;28;20082;-80
2023/08/19 07:20:45;;;;;;;0.10;0.10;;;;;;;;;;5115257;28;20387;-80
2023/08/19 07:23:10;;;;;;;0.00;0.00;;;;;;;;;;5113853;28;20028;-80
2023/08/19 07:25:36;;;;;;;0.00;0.00;;;;;;;;;;5097003;28;20020;-80
2023/08/19 07:28:02;;;;;;;0.00;0.00;;;;;;;;;;5096782;28;20142;-80
2023/08/19 07:30:28;;;;;;;0.00;0.00;;;;;;;;;;5080409;28;20028;-80
2023/08/19 07:32:54;;;;;;;0.10;0.10;;;;;;;;;;5115343;28;20085;-80
2023/08/19 07:35:19;;;;;;;0.00;0.00;;;;;;;;;;5113811;28;20032;-79
2023/08/19 07:37:45;;;;;;;0.08;0.08;;;;;;;;;;5114976;28;20038;-81
2023/08/19 07:40:11;;;;;;;0.00;0.00;;;;;;;;;;5114021;28;20024;-81
2023/08/19 07:42:36;;;;;;;0.10;0.10;;;;;;;;;;5096813;28;20070;-81
2023/08/19 07:45:02;;;;;;;0.00;0.00;;;;;;;;;;5096715;28;20047;-82
2023/08/19 07:47:29;;;;;;;0.10;0.10;;;;;;;;;;5115313;28;20459;-80
2023/08/19 07:49:54;;;;;;;0.00;0.00;;;;;;;;;;5130919;27;20452;-80
2023/08/19 07:52:20;;;;;;;0.10;0.10;;;;;;;;;;5114766;28;20034;-80
2023/08/19 07:54:45;;;;;;;0.10;0.10;;;;;;;;;;5079631;28;20040;-81
2023/08/19 07:57:11;;;;;;;0.10;0.10;;;;;;;;;;5113102;28;20115;-80
2023/08/19 07:59:37;;;;;;;0.10;0.10;;;;;;;;;;5114651;28;20027;-80
2023/08/19 08:02:02;;;;;;;0.10;0.10;;;;;;;;;;5112887;28;20030;-80
2023/08/19 08:04:28;;;;;;;0.10;0.10;;;;;;;;;;5096434;28;20035;-80
2023/08/19 08:06:54;;;;;;;0.17;0.17;;;;;;;;;;5113466;28;20031;-81
2023/08/19 08:09:19;;;;;;;0.10;0.10;;;;;;;;;;5096444;28;20034;-80
2023/08/19 08:11:45;;;;;;;0.10;0.10;;;;;;;;;;5096028;28;20129;-78
2023/08/19 08:14:10;;;;;;;0.10;0.10;;;;;;;;;;5096369;28;20024;-78
2023/08/19 08:16:36;;;;;;;0.10;0.10;;;;;;;;;;5113519;28;20130;-78
2023/08/19 08:19:02;;;;;;;0.00;0.00;;;;;;;;;;5113670;28;20040;-78
2023/08/19 08:21:27;;;;;;;0.10;0.10;;;;;;;;;;5113349;28;20031;-82
2023/08/19 08:23:54;;;;;;;0.10;0.10;;;;;;;;;;5096159;28;20028;-81
2023/08/19 08:26:20;;;;;;;0.10;0.10;;;;;;;;;;5096300;28;20024;-81
2023/08/19 08:28:46;;;;;;;0.10;0.10;;;;;;;;;;5096086;28;20090;-81
2023/08/19 08:31:11;;;;;;;0.10;0.10;;;;;;;;;;5113183;28;20473;-80
2023/08/19 08:33:37;;;;;;;0.10;0.10;;;;;;;;;;5096127;28;20046;-80
2023/08/19 08:36:02;;;;;;;0.10;0.10;;;;;;;;;;5114152;28;20028;-80
2023/08/19 08:38:28;;;;;;;0.10;0.10;;;;;;;;;;5113095;28;20356;-79
2023/08/19 08:40:53;;;;;;;0.20;0.20;;;;;;;;;;5112721;28;20122;-81
2023/08/19 08:43:19;;;;;;;0.10;0.10;;;;;;;;;;5113007;28;20061;-81
2023/08/19 08:45:44;;;;;;;0.20;0.20;;;;;;;;;;5113278;28;20504;-82
2023/08/19 08:48:10;;;;;;;0.10;0.10;;;;;;;;;;5114529;28;20031;-81
2023/08/19 08:50:36;;;;;;;0.10;0.10;;;;;;;;;;5096232;28;20031;-80
2023/08/19 08:53:01;;;;;;;0.10;0.10;;;;;;;;;;5095960;28;20111;-81
2023/08/19 08:55:27;;;;;;;0.10;0.10;;;;;;;;;;5096016;28;20035;-81
2023/08/19 08:57:52;;;;;;;0.10;0.10;;;;;;;;;;5112844;28;20050;-78
2023/08/19 09:00:18;;;;;;;0.10;0.10;;;;;;;;;;5112713;28;20038;-79
2023/08/19 09:02:44;;;;;;;0.13;0.13;;;;;;;;;;5112886;28;20118;-79
2023/08/19 09:05:09;;;;;;;0.10;0.10;;;;;;;;;;5113874;28;20023;-80
2023/08/19 09:07:39;;;;;;;0.10;0.10;;;;;;;;;;5112661;28;20372;-81
2023/08/19 09:10:07;;;;;;;0.10;0.10;;;;;;;;;;5112834;28;20020;-79
2023/08/19 09:12:33;;;;;;;;;;;;;;;;;;5097794;28;20028;-79
2023/08/19 09:15:02;;;;;;;0.10;0.10;;;;;;;;;;5116265;28;19970;-78
2023/08/19 09:17:28;;;;;;;0.10;0.10;;;;;;;;;;5116241;28;20280;-78
2023/08/19 09:19:54;;;;;;;0.10;0.10;;;;;;;;;;5099123;28;20019;-79
2023/08/19 09:22:21;;;;;;;0.10;0.10;;;;;;;;;;5116295;28;20024;-80
2023/08/19 09:24:46;;;;;;;0.00;0.00;;;;;;;;;;5099246;28;20016;-81
2023/08/19 09:27:13;;;;;;;0.00;0.00;;;;;;;;;;5099231;28;20140;-81
2023/08/19 09:29:48;;;;;;;0.00;0.00;;;;;;;;;;5116141;28;20028;-81
2023/08/19 09:32:13;;;;;;;0.00;0.00;;;;;;;;;;5099529;28;20036;-81
2023/08/19 09:34:38;;;;;;;0.00;0.00;;;;;;;;;;5116312;28;20126;-81
2023/08/19 09:37:04;;;;;;;0.03;0.03;;;;;;;;;;5098799;28;20079;-80
2023/08/19 09:39:33;;;;;;;0.10;0.10;;;;;;;;;;5098840;28;20114;-80
2023/08/19 09:41:58;;;;;;;0.00;0.00;;;;;;;;;;5115894;28;20016;-80
2023/08/19 09:44:27;;;;;;;0.03;0.03;;;;;;;;;;5099162;28;20372;-81
2023/08/19 09:46:54;;;;;;;0.10;0.10;;;;;;;;;;5098831;28;20051;-79
2023/08/19 09:49:21;;;;;;;0.10;0.10;;;;;;;;;;5115743;28;20039;-80
2023/08/19 09:51:52;;;;;;;0.00;0.00;;;;;;;;;;5098823;28;20066;-79
2023/08/19 09:54:17;;;;;;;0.10;0.10;;;;;;;;;;5116477;28;20441;-80
2023/08/19 09:56:47;;;;;;;0.10;0.10;;;;;;;;;;5115429;28;20123;-78
2023/08/19 09:59:12;;;;;;;0.00;0.00;;;;;;;;;;5098685;28;20032;-80
2023/08/19 10:01:37;;;;;;;0.00;0.00;;;;;;;;;;5098429;28;20369;-79
2023/08/19 10:04:03;;;;;;;0.00;0.00;;;;;;;;;;5115492;28;20027;-80
2023/08/19 10:06:29;;;;;;;0.10;0.10;;;;;;;;;;5115579;28;20399;-81
2023/08/19 10:09:02;;;;;;;0.00;0.00;;;;;;;;;;5081667;28;20031;-80
2023/08/19 10:11:27;;;;;;;0.03;0.03;;;;;;;;;;5099009;28;20102;-81
2023/08/19 10:13:53;;;;;;;0.10;0.10;;;;;;;;;;5081677;28;20147;-81
2023/08/19 10:16:21;;;;;;;0.10;0.10;;;;;;;;;;5098135;28;20032;-80
2023/08/19 10:18:47;;;;;;;0.00;0.00;;;;;;;;;;5098776;28;20059;-80
2023/08/19 10:21:13;;;;;;;0.10;0.10;;;;;;;;;;5098408;28;20505;-81
2023/08/19 10:23:39;;;;;;;0.00;0.00;;;;;;;;;;5097212;28;20480;-80
2023/08/19 10:26:05;;;;;;;0.00;0.00;;;;;;;;;;5081763;28;20077;-79
2023/08/19 10:28:31;;;;;;;0.00;0.00;;;;;;;;;;5115513;27;20124;-80
2023/08/19 10:31:10;;;;;;;0.00;0.00;;;;;;;;;;5115933;28;20448;-80
2023/08/19 10:33:39;;;;;;;0.00;0.00;;;;;;;;;;5098111;28;20032;-80
2023/08/19 10:36:05;;;;;;;0.00;0.00;;;;;;;;;;5115904;28;20032;-80
2023/08/19 10:38:47;;;;;;;0.00;0.00;;;;;;;;;;5097682;28;20023;-80
2023/08/19 10:41:20;;;;;;;0.00;0.00;;;;;;;;;;5116284;28;20055;-80
2023/08/19 10:43:52;;;;;;;0.00;0.00;;;;;;;;;;5114963;28;20039;-79
2023/08/19 10:46:20;;;;;;;0.00;0.00;;;;;;;;;;5116188;28;20027;-80
2023/08/19 10:48:48;;;;;;;0.00;0.00;;;;;;;;;;5114998;28;20031;-80
2023/08/19 10:51:17;;;;;;;0.00;0.00;;;;;;;;;;5097691;28;20111;-80
2023/08/19 10:53:48;;;;;;;0.00;0.00;;;;;;;;;;5115593;28;20080;-80
2023/08/19 10:56:14;;;;;;;0.00;0.00;;;;;;;;;;5114348;28;20375;-81
2023/08/19 10:58:39;;;;;;;0.00;0.00;;;;;;;;;;5080562;28;20134;-79
2023/08/19 11:01:05;;;;;;;0.00;0.00;;;;;;;;;;5097535;28;20028;-78
2023/08/19 11:03:31;;;;;;;0.00;0.00;;;;;;;;;;5097684;28;20027;-79
2023/08/19 11:05:57;;;;;;;0.00;0.00;;;;;;;;;;5113892;28;20047;-79
2023/08/19 11:08:22;;;;;;;0.00;0.00;;;;;;;;;;5115777;28;20023;-80
2023/08/19 11:10:48;;;;;;;0.00;0.00;;;;;;;;;;5114207;28;20092;-79
2023/08/19 11:13:13;;;;;;;0.00;0.00;;;;;;;;;;5114178;28;20034;-82
2023/08/19 11:15:43;;;;;;;0.00;0.00;;;;;;;;;;5114188;28;20469;-81
2023/08/19 11:18:08;;;;;;;0.00;0.00;;;;;;;;;;5097381;28;20085;-82
2023/08/19 11:20:35;;;;;;;0.00;0.00;;;;;;;;;;5113981;28;20380;-80
2023/08/19 11:23:01;;;;;;;0.00;0.00;;;;;;;;;;5097206;28;20372;-80
2023/08/19 11:25:37;;;;;;;0.00;0.00;;;;;;;;;;5113745;28;20055;-79
2023/08/19 11:28:03;;;;;;;0.00;0.00;;;;;;;;;;5113743;28;20092;-79
2023/08/19 11:30:29;;;;;;;0.00;0.00;;;;;;;;;;5113935;28;20040;-78
2023/08/19 11:32:54;;;;;;;0.00;0.00;;;;;;;;;;5097228;28;20027;-79
2023/08/19 11:35:20;;;;;;;0.00;0.00;;;;;;;;;;5112840;28;20027;-79
2023/08/19 11:37:45;;;;;;;0.00;0.00;;;;;;;;;;5113559;28;20035;-79
2023/08/19 11:40:13;;;;;;;0.00;0.00;;;;;;;;;;5113672;28;20061;-78
2023/08/19 11:42:38;;;;;;;0.00;0.00;;;;;;;;;;5113506;28;20040;-79
2023/08/19 11:45:07;;;;;;;0.00;0.00;;;;;;;;;;5113825;28;20046;-79
2023/08/19 11:47:34;;;;;;;0.00;0.00;;;;;;;;;;5114983;28;20051;-79
2023/08/19 11:50:03;;;;;;;0.00;0.00;;;;;;;;;;5114001;28;20071;-79
2023/08/19 11:52:28;;;;;;;0.00;0.00;;;;;;;;;;5113770;28;20030;-79
2023/08/19 11:54:58;;;;;;;0.00;0.00;;;;;;;;;;5114651;28;20118;-78
2023/08/19 11:57:23;;;;;;;0.00;0.00;;;;;;;;;;5113520;28;20096;-78
2023/08/19 11:59:49;;;;;;;0.00;0.00;;;;;;;;;;5096408;28;20047;-78
2023/08/19 12:02:14;;;;;;;0.00;0.00;;;;;;;;;;5096100;28;20084;-80
2023/08/19 12:04:40;;;;;;;0.00;0.00;;;;;;;;;;5113301;28;20024;-80
2023/08/19 12:07:09;;;;;;;0.00;0.00;;;;;;;;;;5096196;28;20106;-78
2023/08/19 12:09:36;;;;;;;0.00;0.00;;;;;;;;;;5096793;28;20069;-81
2023/08/19 12:12:07;;;;;;;0.00;0.00;;;;;;;;;;5114914;28;20520;-78
2023/08/19 12:14:32;;;;;;;0.00;0.00;;;;;;;;;;5114578;28;20413;-79
2023/08/19 12:16:58;;;;;;;0.00;0.00;;;;;;;;;;5114317;28;20036;-79
2023/08/19 12:19:23;;;;;;;0.00;0.00;;;;;;;;;;5096183;28;20024;-79
2023/08/19 12:21:48;;;;;;;0.00;0.00;;;;;;;;;;5113396;28;20124;-79
2023/08/19 12:24:14;;;;;;;0.00;0.00;;;;;;;;;;5114814;28;20024;-81
2023/08/19 12:26:39;;;;;;;0.00;0.00;;;;;;;;;;5096143;28;20024;-78
2023/08/19 12:29:05;;;;;;;0.00;0.00;;;;;;;;;;5114057;28;20044;-78
2023/08/19 12:31:30;;;;;;;0.00;0.00;;;;;;;;;;5096575;28;20407;-80
2023/08/19 12:33:55;;;;;;;0.00;0.00;;;;;;;;;;5114401;28;20020;-78
2023/08/19 12:36:21;;;;;;;0.00;0.00;;;;;;;;;;5114107;28;20368;-80
2023/08/19 12:38:46;;;;;;;0.00;0.00;;;;;;;;;;5112996;28;20081;-80
2023/08/19 12:41:12;;;;;;;0.00;0.00;;;;;;;;;;5112933;28;20093;-79
2023/08/19 12:43:38;;;;;;;0.00;0.00;;;;;;;;;;5113251;28;20032;-80
2023/08/19 12:46:03;;;;;;;0.00;0.00;;;;;;;;;;5114155;28;20476;-79
2023/08/19 12:48:29;;;;;;;0.00;0.00;;;;;;;;;;5115656;28;20441;-79
2023/08/19 12:50:54;;;;;;;0.00;0.00;;;;;;;;;;5118108;28;20039;-79
2023/08/19 12:53:20;;;;;;;0.00;0.00;;;;;;;;;;5118016;28;20441;-80
2023/08/19 12:55:45;;;;;;;0.00;0.00;;;;;;;;;;5117934;28;20084;-80
2023/08/19 12:58:12;;;;;;;0.00;0.00;;;;;;;;;;5116781;28;20484;-79
2023/08/19 13:00:37;;;;;;;0.00;0.00;;;;;;;;;;5099860;28;20120;-79
2023/08/19 13:03:03;;;;;;;0.00;0.00;;;;;;;;;;5099285;28;20132;-79
2023/08/19 13:05:28;;;;;;;0.00;0.00;;;;;;;;;;5117108;28;20032;-79
2023/08/19 13:07:54;;;;;;;0.00;0.00;;;;;;;;;;5116545;28;20358;-79
2023/08/19 13:10:19;;;;;;;0.00;0.00;;;;;;;;;;5100055;28;20032;-80
2023/08/19 13:12:46;;;;;;;0.00;0.00;;;;;;;;;;5116677;28;20452;-80
2023/08/19 13:15:16;;;;;;;0.00;0.00;;;;;;;;;;5082599;28;20035;-78
2023/08/19 13:17:42;;;;;;;0.00;0.00;;;;;;;;;;5116302;28;20028;-78
2023/08/19 13:20:08;;;;;;;0.00;0.00;;;;;;;;;;5099203;28;20032;-77
2023/08/19 13:22:33;;;;;;;0.00;0.00;;;;;;;;;;5116507;28;20372;-78
2023/08/19 13:24:59;;;;;;;0.00;0.00;;;;;;;;;;5116151;28;20453;-79
2023/08/19 13:27:25;;;;;;;0.00;0.00;;;;;;;;;;5117246;28;20027;-78
2023/08/19 13:29:50;;;;;;;0.00;0.00;;;;;;;;;;5117492;27;20108;-79
2023/08/19 13:32:16;;;;;;;0.00;0.00;;;;;;;;;;5116178;28;20031;-79
2023/08/19 13:34:41;;;;;;;0.00;0.00;;;;;;;;;;5117460;28;20031;-79
2023/08/19 13:37:07;;;;;;;0.00;0.00;;;;;;;;;;5115930;28;20040;-79
2023/08/19 13:39:37;;;;;;;0.00;0.00;;;;;;;;;;5116452;28;20039;-79
2023/08/19 13:42:02;;;;;;;0.00;0.00;;;;;;;;;;5098784;28;20457;-79
2023/08/19 13:44:28;;;;;;;0.00;0.00;;;;;;;;;;5117070;28;20038;-80
2023/08/19 13:46:56;;;;;;;0.00;0.00;;;;;;;;;;5116973;28;20369;-79
2023/08/19 13:49:22;;;;;;;0.00;0.00;;;;;;;;;;5115881;28;20054;-81
2023/08/19 13:51:48;;;;;;;0.00;0.00;;;;;;;;;;5115893;28;20065;-78
2023/08/19 13:54:13;;;;;;;0.00;0.00;;;;;;;;;;5115818;28;20020;-78
2023/08/19 13:56:41;;;;;;;0.00;0.00;;;;;;;;;;5115453;28;20100;-78
2023/08/19 13:59:07;;;;;;;0.00;0.00;;;;;;;;;;5115447;28;20437;-79
2023/08/19 14:01:32;;;;;;;0.00;0.00;;;;;;;;;;5098526;28;20034;-79
2023/08/19 14:03:58;;;;;;;0.00;0.00;;;;;;;;;;5115803;28;20042;-79
2023/08/19 14:06:23;;;;;;;0.00;0.00;;;;;;;;;;5116684;28;20032;-80
2023/08/19 14:08:48;;;;;;;0.00;0.00;;;;;;;;;;5116910;28;20441;-81
2023/08/19 14:11:14;;;;;;;0.00;0.00;;;;;;;;;;5116572;28;20066;-80
2023/08/19 14:13:41;;;;;;;0.00;0.00;;;;;;;;;;5116323;28;20078;-80
2023/08/19 14:16:06;;;;;;;0.00;0.00;;;;;;;;;;5115139;28;20147;-81
2023/08/19 14:18:32;;;;;;;0.00;0.00;;;;;;;;;;5098372;28;20029;-79
2023/08/19 14:20:57;;;;;;;0.10;0.00;;;;;;;;;;5115533;28;20027;-80
2023/08/19 14:23:23;;;;;;;0.00;0.00;;;;;;;;;;5098121;28;20027;-80
2023/08/19 14:25:48;;;;;;;0.00;0.00;;;;;;;;;;5116646;28;20035;-80
2023/08/19 14:28:14;;;;;;;0.00;0.00;;;;;;;;;;5115882;28;20028;-79
2023/08/19 14:30:41;;;;;;;0.00;0.00;;;;;;;;;;5114978;28;20023;-80
2023/08/19 14:33:07;;;;;;;0.00;0.00;;;;;;;;;;5115045;28;20393;-79
2023/08/19 14:35:33;;;;;;;0.00;0.00;;;;;;;;;;5114974;28;20106;-79
2023/08/19 14:37:58;;;;;;;0.00;0.00;;;;;;;;;;5116307;27;20508;-78
2023/08/19 14:40:24;;;;;;;0.00;0.00;;;;;;;;;;5114771;28;20023;-78